Weather Models
Both GFS & NAM
00z 06z 12z 18z
24hr Precip
00z 06z 12z 18z
36hr Simulated radar
00z 06z 12z 18z
SKEWT Soundings
00z 12z
Current Conditions (Updated 5:45am on 5/27/17)
Temperature
 61°
-0.95
67°  
61°  
0
10
20
30
40
50
60
70
80
90
100
Dew Point
52°
55°  
52°  
-20
-10
0
10
20
30
40
50
60
70
80
Wind Chill
60°
67°  
60°  
-20
-10
0
10
20
30
40
50
60
70
80
Wind Chill
Humidity
71%
73% 
64% 
0
10
20
30
40
50
60
70
80
90
100
Barometer
29.90
   Steady
29.90  
29.87  
28.00
28.30
28.60
28.90
29.20
29.50
29.80
30.10
30.40
30.70
31.00
Temperature
Dew Point
Humidity
Pressure
Wind
8mph
 NW
Daily Rain
.00
.05
.10
.15
.20
.25
.30
.35
.40
.45
.50
Rain Today
 0.00" 
Month Rain
0.00
0.50
1.00
1.50
2.00
2.50
3.00
3.50
4.00
4.50
5.00
Month Rain
 4.83" 
Year Rain
0.00
2.50
5.00
7.50
10.00
12.50
15.00
17.50
20.00
22.50
25.00
Year Rain
 16.35" 
Sun & Moon Data
Sunrise 5:35am
Sunset 8:19pm
Moonrise 7:33am
Moonset 10:24pm
Moon % 1%
Other Rain Data
Past Hour 0.00 Past 24 Hours 0.00
Past 3 Hours 0.00 Past 7 Days 1.71
Past 6 Hours 0.00
Cloud Height
2366


Current Front Map
Current Satellite map
7 Day Forecast
NWS Forecast for Philadelphia PA
National Weather Service Forecast for: Philadelphia PA
Issued by: National Weather Service Philadelphia, PA
Updated: 3:35 am EDT May 27, 2017

Philadelphia
 
Today

Today: A slight chance of showers after 1pm.  Increasing clouds, with a high near 74. Northwest wind 5 to 7 mph.  Chance of precipitation is 20%.
Partly Sunny
then Slight
Chance
Showers
Tonight

Tonight: Mostly cloudy, with a low around 58. Light and variable wind.
Mostly Cloudy

Sunday

Sunday: Partly sunny, with a high near 74. Light and variable wind becoming southeast 6 to 11 mph in the morning.
Partly Sunny

Sunday
Night
Sunday Night: Scattered showers and thunderstorms.  Cloudy, with a low around 59. Southeast wind 8 to 11 mph.  Chance of precipitation is 50%. New precipitation amounts of less than a tenth of an inch, except higher amounts possible in thunderstorms.
Scattered
T-storms then
Scattered
Showers
Memorial
Day
Memorial Day: Showers likely and possibly a thunderstorm before 2pm, then scattered showers and thunderstorms after 2pm.  Mostly cloudy, with a high near 79. Southeast wind 5 to 7 mph becoming light and variable  in the afternoon.  Chance of precipitation is 60%. New rainfall amounts of less than a tenth of an inch, except higher amounts possible in thunderstorms.
Showers
Likely

Monday
Night
Monday Night: Scattered showers before 8pm.  Mostly cloudy, with a low around 60. Chance of precipitation is 30%. New precipitation amounts of less than a tenth of an inch possible.
Scattered
Showers then
Mostly Cloudy
Tuesday

Tuesday: Partly sunny, with a high near 80.
Partly Sunny

Tuesday
Night
Tuesday Night: Mostly cloudy, with a low around 61.
Mostly Cloudy

Wednesday

Wednesday: Mostly sunny, with a high near 80.
Mostly Sunny

Hi 74 °F Lo 58 °F Hi 74 °F Lo 59 °F Hi 79 °F Lo 60 °F Hi 80 °F Lo 61 °F Hi 80 °F

 

Today
 
A slight chance of showers after 1pm. Increasing clouds, with a high near 74. Northwest wind 5 to 7 mph. Chance of precipitation is 20%.
Tonight
 
Mostly cloudy, with a low around 58. Light and variable wind.
Sunday
 
Partly sunny, with a high near 74. Light and variable wind becoming southeast 6 to 11 mph in the morning.
Sunday Night
 
Scattered showers and thunderstorms. Cloudy, with a low around 59. Southeast wind 8 to 11 mph. Chance of precipitation is 50%. New precipitation amounts of less than a tenth of an inch, except higher amounts possible in thunderstorms.
Memorial Day
 
Showers likely and possibly a thunderstorm before 2pm, then scattered showers and thunderstorms after 2pm. Mostly cloudy, with a high near 79. Southeast wind 5 to 7 mph becoming light and variable in the afternoon. Chance of precipitation is 60%. New rainfall amounts of less than a tenth of an inch, except higher amounts possible in thunderstorms.
Monday Night
 
Scattered showers before 8pm. Mostly cloudy, with a low around 60. Chance of precipitation is 30%. New precipitation amounts of less than a tenth of an inch possible.
Tuesday
 
Partly sunny, with a high near 80.
Tuesday Night
 
Mostly cloudy, with a low around 61.
Wednesday
 
Mostly sunny, with a high near 80.
Wednesday Night
 
Partly cloudy, with a low around 60.
Thursday
 
Mostly sunny, with a high near 78.
Thursday Night
 
Partly cloudy, with a low around 59.
Friday
 
Mostly sunny, with a high near 77.

 

Forecast from NOAA-NWS for Philadelphia PA.

Area Weather Current Conditions
Nearby METAR Reports

KPHL - Philadelphia, Pennsylvania
Updated: Sat, 27-May-2017 4:54am EDT
Clear
Clear
 Wind from W
Wind: W 10 mph , 17 km/h
Temperature: 61°F , 16°C
Dew Point: 52°F , 11°C
Humidity: 72%
Barometer: 29.89 inHg , 1012.2 hPa
Clouds: Clear
Visibility: 10 miles , 16 km
2017/05/27 08:54 KPHL 270854Z 28009KT 10SM CLR 16/11 A2989 RMK AO2 SLP121 T01610106 53005
KMPO - Mt. Pocono, Pennsylvania
Updated: Sat, 27-May-2017 5:05am EDT
Overcast
Overcast
 Wind from WNW
Wind: WNW 6 mph , 9 km/h
Temperature: 54°F , 12°C
Dew Point: 54°F , 12°C
Humidity: 100%
Barometer: 29.89 inHg , 1012.2 hPa
Clouds: Overcast
Visibility: 10 miles , 16 km
Cloud details: Mostly Cloudy 900 ft
Overcast 1400 ft
2017/05/27 09:05 KMPO 270905Z AUTO 29005KT 10SM BKN009 OVC014 12/12 A2989 RMK AO2 CIG 006V011 T01170117
 
KACY - Atlantic City, New Jersey
Updated: Sat, 27-May-2017 4:54am EDT
Clear
Clear
 Wind from W
Wind: W 5 mph , 7 km/h
Temperature: 57°F , 14°C
Dew Point: 52°F , 11°C
Humidity: 82%
Barometer: 29.88 inHg , 1011.9 hPa
Clouds: Clear
Visibility: 10 miles , 16 km
2017/05/27 08:54 KACY 270854Z 28004KT 10SM CLR 14/11 A2988 RMK AO2 SLP116 T01440111 53008
KMIV - Millville, New Jersey
Updated: Sat, 27-May-2017 4:54am EDT
Clear
Clear
 Wind from W
Wind: W 6 mph , 9 km/h
Temperature: 54°F , 12°C
Dew Point: 54°F , 12°C
Humidity: 100%
Barometer: 29.89 inHg , 1012.2 hPa
Clouds: Clear
Visibility: 10 miles , 16 km
2017/05/27 08:54 KMIV 270854Z AUTO 28005KT 10SM CLR 12/12 A2989 RMK AO2 SLP119 T01170117 53005
 
KWWD - Wildwood, New Jersey
Updated: Sat, 27-May-2017 4:56am EDT
Clear
Clear
 Wind from WNW
Wind: WNW 8 mph , 13 km/h
Temperature: 64°F , 18°C
Dew Point: 55°F , 13°C
Humidity: 73%
Barometer: 29.89 inHg , 1012.2 hPa
Clouds: Clear
Visibility: 10 miles , 16 km
2017/05/27 08:56 KWWD 270856Z AUTO 29007KT 10SM CLR 18/13 A2989 RMK AO2 SLP125 T01780128 53002
KDOV - Dover Afb, Delaware
Updated: Sat, 27-May-2017 4:58am EDT
Few Clouds
Few Clouds
 Wind from W
Wind: W 7 mph , 11 km/h
Temperature: 61°F , 16°C
Dew Point: 59°F , 15°C
Humidity: 94%
Barometer: 29.89 inHg , 1012.2 hPa
Clouds: Few Clouds
Visibility: 10 miles , 16 km
Cloud details: Few Clouds 6000 ft
2017/05/27 08:58 KDOV 270858Z AUTO 28006KT 10SM FEW060 16/15 A2989 RMK AO2 SLP125 T01580153 52005 $
Severe Weather Map
Recent Forum Post
[Philadelphia] Request for Philly Snow Data by JC February 14, 2017, 08:42:21 PM
[Philadelphia] 2016 -2017 Winter snow forecast by JC December 01, 2016, 04:56:31 AM
[Philadelphia] Winter forecast 2016-2017 by xyonist November 30, 2016, 01:14:08 PM
[Philadelphia] 102.7 last Saturday by JC August 20, 2016, 03:26:22 AM
[Philadelphia] 2015 -2016 Winter snow forecast by JC April 19, 2016, 09:42:40 AM
[Philadelphia] Latest Models on Weekend Storm (Photos) by JC January 23, 2016, 12:01:03 PM
[Philadelphia] Possible large snow storm for end of week ? by JC January 21, 2016, 09:17:47 AM
[Philadelphia] El Nino! by vicente6 September 16, 2015, 01:57:08 AM